Time;durP1;ratioP1;P1;durP2;ratioP2;P2;SDS_P1;SDS_P2;PMS_P1;PMS_P2;Temp;Humidity;BMP_temperature;BMP_pressure;BME280_temperature;BME280_humidity;BME280_pressure;Samples;Min_cycle;Max_cycle;Signal;HPM_P1;HPM_P2
2023/06/25 00:02:16;;;;;;;9.68;4.18;;;26.10;44.40;;;;;;6245291;28;20095;-75
2023/06/25 00:05:17;;;;;;;7.32;4.00;;;26.10;44.70;;;;;;6261911;28;20037;-75
2023/06/25 00:08:17;;;;;;;10.48;4.38;;;26.00;45.10;;;;;;6245020;28;20087;-75
2023/06/25 00:11:20;;;;;;;20.38;4.50;;;26.00;45.50;;;;;;6242836;28;20030;-75
2023/06/25 00:14:21;;;;;;;7.57;4.13;;;26.00;45.70;;;;;;6241958;28;20071;-74
2023/06/25 00:17:27;;;;;;;6.75;4.20;;;26.00;45.80;;;;;;6243069;28;20674;-75
2023/06/25 00:20:28;;;;;;;8.40;4.15;;;26.00;45.90;;;;;;6241343;28;20462;-75
2023/06/25 00:23:29;;;;;;;7.00;4.03;;;26.00;45.80;;;;;;6242673;28;20037;-76
2023/06/25 00:26:30;;;;;;;9.00;4.22;;;25.90;45.60;;;;;;6257745;28;20039;-75
2023/06/25 00:29:31;;;;;;;10.88;4.18;;;26.00;45.60;;;;;;6241412;28;20087;-75
2023/06/25 00:32:32;;;;;;;7.70;4.55;;;26.00;45.60;;;;;;6240998;28;20189;-75
2023/06/25 00:35:55;;;;;;;8.50;4.13;;;26.00;45.60;;;;;;6241299;28;20025;-75
2023/06/25 00:38:55;;;;;;;8.93;4.00;;;25.90;45.70;;;;;;6259717;28;20033;-74
2023/06/25 00:42:00;;;;;;;5.40;3.45;;;25.90;45.70;;;;;;6260002;28;20124;-74
2023/06/25 00:45:02;;;;;;;10.30;5.07;;;25.90;45.80;;;;;;6241222;28;20655;-75
2023/06/25 00:48:03;;;;;;;8.50;4.80;;;25.80;46.30;;;;;;6240620;28;20103;-75
2023/06/25 00:51:04;;;;;;;8.02;4.38;;;25.80;45.60;;;;;;6257046;28;20414;-75
2023/06/25 00:54:05;;;;;;;7.82;4.78;;;25.80;45.60;;;;;;6240442;28;20121;-76
2023/06/25 00:57:08;;;;;;;10.18;4.60;;;25.70;45.60;;;;;;6257956;28;20021;-74
2023/06/25 01:00:14;;;;;;;9.77;4.65;;;25.70;45.60;;;;;;6242800;28;20424;-75
2023/06/25 01:03:26;;;;;;;7.13;4.53;;;25.80;45.80;;;;;;6240506;28;20436;-74
2023/06/25 01:06:35;;;;;;;7.35;4.78;;;25.70;45.80;;;;;;6240859;28;20482;-76
2023/06/25 01:09:37;;;;;;;10.20;4.55;;;25.70;45.70;;;;;;6256704;28;20402;-76
2023/06/25 01:12:39;;;;;;;9.50;4.40;;;25.60;45.60;;;;;;6239650;28;20033;-75
2023/06/25 01:15:40;;;;;;;6.45;3.97;;;25.60;45.70;;;;;;6241645;28;20462;-75
2023/06/25 01:18:41;;;;;;;6.05;3.88;;;25.60;45.80;;;;;;6256443;28;20469;-74
2023/06/25 01:21:43;;;;;;;7.35;3.58;;;25.50;45.80;;;;;;6239667;28;20091;-74
2023/06/25 01:24:47;;;;;;;5.40;3.58;;;25.50;45.90;;;;;;6241946;28;20530;-75
2023/06/25 01:27:50;;;;;;;6.60;4.18;;;25.50;46.10;;;;;;6256764;28;20068;-75
2023/06/25 01:30:52;;;;;;;7.13;3.92;;;25.40;46.30;;;;;;6245184;28;20045;-76
2023/06/25 01:33:53;;;;;;;7.13;3.75;;;25.30;46.50;;;;;;6244459;28;20044;-75
2023/06/25 01:36:54;;;;;;;7.00;3.78;;;25.30;46.80;;;;;;6243593;28;20014;-75
2023/06/25 01:39:56;;;;;;;7.90;4.00;;;25.20;46.90;;;;;;6240048;28;20433;-75
2023/06/25 01:42:57;;;;;;;7.22;3.80;;;25.10;47.00;;;;;;6241127;28;20275;-75
2023/06/25 01:45:58;;;;;;;6.65;3.95;;;25.10;47.20;;;;;;6240971;28;20473;-75
2023/06/25 01:48:59;;;;;;;6.35;4.20;;;25.10;47.30;;;;;;6239932;28;20107;-75
2023/06/25 01:52:01;;;;;;;11.05;4.28;;;25.10;47.40;;;;;;6256194;28;20089;-77
2023/06/25 01:55:02;;;;;;;7.38;4.53;;;24.90;47.40;;;;;;6240071;28;20040;-74
2023/06/25 01:58:03;;;;;;;6.50;4.13;;;25.00;47.50;;;;;;6256819;28;20033;-74
2023/06/25 02:01:04;;;;;;;7.13;4.10;;;25.00;47.60;;;;;;6239191;28;20061;-74
2023/06/25 02:04:04;;;;;;;10.00;4.80;;;24.90;47.70;;;;;;6256087;28;20083;-74
2023/06/25 02:07:05;;;;;;;13.25;4.10;;;24.90;47.70;;;;;;6239552;28;20034;-74
2023/06/25 02:10:06;;;;;;;7.05;4.82;;;24.90;47.80;;;;;;6241175;28;20025;-75
2023/06/25 02:13:07;;;;;;;6.95;4.18;;;24.90;47.90;;;;;;6240327;28;20425;-75
2023/06/25 02:16:08;;;;;;;7.32;4.20;;;24.90;47.90;;;;;;6239389;28;20030;-75
2023/06/25 02:19:09;;;;;;;6.43;4.30;;;24.90;47.90;;;;;;6239248;28;20030;-75
2023/06/25 02:22:10;;;;;;;8.93;4.25;;;24.90;47.90;;;;;;6243313;28;20040;-74
2023/06/25 02:25:11;;;;;;;9.48;4.40;;;24.90;48.00;;;;;;6260518;28;20371;-74
2023/06/25 02:28:12;;;;;;;9.40;4.80;;;24.90;48.10;;;;;;6245574;28;20040;-75
2023/06/25 02:31:14;;;;;;;6.75;4.28;;;24.90;48.20;;;;;;6245346;28;20053;-75
2023/06/25 02:34:16;;;;;;;9.02;4.97;;;24.80;48.50;;;;;;6245056;28;20486;-74
2023/06/25 02:37:17;;;;;;;8.55;4.78;;;24.80;48.80;;;;;;6269228;28;20092;-73
2023/06/25 02:40:18;;;;;;;6.32;4.32;;;24.70;49.00;;;;;;6247527;28;20045;-75
2023/06/25 02:43:19;;;;;;;7.35;4.40;;;24.70;49.30;;;;;;6253998;28;20080;-76
2023/06/25 02:46:20;;;;;;;8.32;4.57;;;24.70;49.50;;;;;;6260940;28;20173;-74
2023/06/25 02:49:21;;;;;;;7.43;4.60;;;24.70;49.90;;;;;;6244271;28;20137;-74
2023/06/25 02:52:22;;;;;;;8.20;4.22;;;24.60;50.10;;;;;;6246613;28;20548;-75
2023/06/25 02:55:23;;;;;;;6.95;4.55;;;24.60;50.10;;;;;;6255982;28;20034;-75
2023/06/25 02:58:24;;;;;;;9.88;4.72;;;24.50;50.10;;;;;;6243580;28;20041;-74
2023/06/25 03:01:24;;;;;;;9.23;4.47;;;24.50;50.20;;;;;;6242883;28;20042;-74
2023/06/25 03:04:25;;;;;;;8.35;4.40;;;24.70;50.40;;;;;;6259466;28;20037;-74
2023/06/25 03:07:26;;;;;;;9.95;3.95;;;24.50;50.10;;;;;;6243321;28;20060;-75
2023/06/25 03:10:31;;;;;;;10.32;4.45;;;24.50;50.10;;;;;;6260008;28;20068;-74
2023/06/25 03:13:32;;;;;;;12.10;4.82;;;24.60;50.30;;;;;;6242240;28;20124;-75
2023/06/25 03:16:33;;;;;;;10.05;4.28;;;24.60;50.40;;;;;;6242555;28;20044;-74
2023/06/25 03:19:34;;;;;;;11.75;4.53;;;24.50;50.40;;;;;;6259456;28;20055;-74
2023/06/25 03:22:35;;;;;;;13.40;4.82;;;24.60;50.60;;;;;;6242752;28;20029;-73
2023/06/25 03:25:37;;;;;;;7.25;4.63;;;24.50;50.50;;;;;;6226357;28;20089;-74
2023/06/25 03:29:00;;;;;;;6.80;4.35;;;24.50;50.40;;;;;;6229308;28;20021;-75
2023/06/25 03:32:01;;;;;;;7.40;4.55;;;24.40;50.50;;;;;;6225421;28;20044;-76
2023/06/25 03:35:03;;;;;;;6.68;4.28;;;24.30;50.70;;;;;;6242922;28;20739;-74
2023/06/25 03:38:05;;;;;;;8.93;4.93;;;24.20;50.90;;;;;;6244163;28;20048;-75
2023/06/25 03:41:06;;;;;;;9.48;4.00;;;24.10;51.20;;;;;;6243751;28;20465;-76
2023/06/25 03:44:07;;;;;;;13.20;4.78;;;24.00;51.40;;;;;;6258674;28;20144;-74
2023/06/25 03:47:09;;;;;;;8.65;4.72;;;24.00;51.50;;;;;;6226103;28;20064;-73
2023/06/25 03:50:11;;;;;;;8.77;4.40;;;23.90;51.50;;;;;;6242027;28;20060;-75
2023/06/25 03:53:11;;;;;;;7.10;4.55;;;23.90;51.50;;;;;;6241840;28;20037;-73
2023/06/25 03:56:14;;;;;;;8.18;4.70;;;23.90;51.50;;;;;;6242584;28;20036;-74
2023/06/25 03:59:15;;;;;;;8.55;4.47;;;23.90;51.50;;;;;;6242269;28;20029;-74
2023/06/25 04:02:16;;;;;;;6.30;4.13;;;24.00;51.60;;;;;;6241313;28;20067;-73
2023/06/25 04:05:17;;;;;;;9.95;4.40;;;24.00;51.60;;;;;;6242355;28;20033;-74
2023/06/25 04:08:19;;;;;;;7.05;4.60;;;24.00;51.60;;;;;;6241728;28;20033;-74
2023/06/25 04:11:20;;;;;;;7.70;4.50;;;24.00;51.60;;;;;;6241557;28;20052;-74
2023/06/25 04:14:21;;;;;;;9.25;4.43;;;24.00;51.80;;;;;;6257767;28;20103;-74
2023/06/25 04:17:22;;;;;;;8.85;4.28;;;24.00;51.70;;;;;;6243720;28;20029;-76
2023/06/25 04:20:26;;;;;;;6.35;3.97;;;24.00;51.60;;;;;;6241471;28;20071;-75
2023/06/25 04:23:27;;;;;;;9.95;5.07;;;24.10;51.50;;;;;;6258421;28;20060;-75
2023/06/25 04:26:28;;;;;;;9.05;5.00;;;24.10;51.40;;;;;;6241579;28;20041;-74
2023/06/25 04:29:28;;;;;;;9.45;4.30;;;24.10;51.30;;;;;;6241046;28;20159;-75
2023/06/25 04:32:29;;;;;;;6.38;4.07;;;24.10;51.30;;;;;;6240698;28;20520;-74
2023/06/25 04:35:30;;;;;;;7.95;3.95;;;24.30;51.30;;;;;;6241192;28;20144;-74
2023/06/25 04:38:33;;;;;;;10.90;4.80;;;24.20;51.00;;;;;;6253813;28;20029;-75
2023/06/25 04:41:34;;;;;;;6.72;4.15;;;24.20;50.90;;;;;;6242581;28;20032;-73
2023/06/25 04:44:35;;;;;;;8.65;4.85;;;24.20;51.10;;;;;;6257525;28;20083;-75
2023/06/25 04:47:37;;;;;;;8.23;4.63;;;24.20;51.10;;;;;;6243738;28;20028;-77
2023/06/25 04:50:37;;;;;;;9.88;4.60;;;24.20;51.20;;;;;;6242751;28;20026;-75
2023/06/25 04:53:38;;;;;;;9.52;4.72;;;24.10;51.30;;;;;;6257342;28;20033;-75
2023/06/25 04:56:39;;;;;;;6.88;4.57;;;24.10;51.30;;;;;;6244708;28;20115;-73
2023/06/25 04:59:40;;;;;;;9.50;4.60;;;24.10;51.50;;;;;;6244550;28;20110;-74
2023/06/25 05:02:41;;;;;;;7.95;4.20;;;24.00;51.50;;;;;;6240761;28;20044;-76
2023/06/25 05:05:42;;;;;;;8.35;4.65;;;24.00;51.60;;;;;;6240861;28;20029;-74
2023/06/25 05:08:43;;;;;;;9.18;5.18;;;24.10;51.60;;;;;;6257156;28;20458;-75
2023/06/25 05:11:44;;;;;;;6.60;4.35;;;24.10;51.50;;;;;;6240116;28;20419;-75
2023/06/25 05:14:45;;;;;;;19.83;5.10;;;24.10;51.50;;;;;;6257077;28;20109;-75
2023/06/25 05:17:46;;;;;;;12.55;4.35;;;24.10;51.50;;;;;;6242064;28;20033;-75
2023/06/25 05:20:47;;;;;;;11.27;4.88;;;24.10;51.70;;;;;;6240148;28;20590;-74
2023/06/25 05:23:58;;;;;;;7.97;4.18;;;24.00;51.60;;;;;;6240402;28;20144;-74
2023/06/25 05:26:59;;;;;;;6.40;4.43;;;24.00;51.70;;;;;;6239970;28;20037;-75
2023/06/25 05:30:01;;;;;;;8.13;4.78;;;24.10;52.30;;;;;;6239954;28;20083;-74
2023/06/25 05:33:01;;;;;;;7.75;5.05;;;24.10;51.70;;;;;;6256726;28;20076;-75
2023/06/25 05:36:03;;;;;;;10.25;4.40;;;24.10;51.70;;;;;;6241720;28;20063;-75
2023/06/25 05:39:04;;;;;;;8.55;5.00;;;24.10;51.70;;;;;;6254448;28;20029;-74
2023/06/25 05:42:06;;;;;;;9.82;5.00;;;24.10;51.70;;;;;;6241765;28;20212;-75
2023/06/25 05:45:08;;;;;;;6.15;4.63;;;24.10;51.70;;;;;;6258961;28;20115;-74
2023/06/25 05:48:09;;;;;;;8.23;5.00;;;24.10;51.70;;;;;;6248896;28;20474;-75
2023/06/25 05:51:10;;;;;;;10.02;4.55;;;24.20;51.70;;;;;;6241818;28;20076;-76
2023/06/25 05:54:10;;;;;;;7.97;4.85;;;24.20;51.70;;;;;;6240407;28;20041;-75
2023/06/25 05:57:12;;;;;;;9.23;5.40;;;24.20;51.60;;;;;;6246550;28;20025;-77
2023/06/25 06:00:13;;;;;;;7.72;4.47;;;24.30;51.40;;;;;;6261758;28;20045;-75
2023/06/25 06:03:18;;;;;;;8.10;4.85;;;24.30;51.10;;;;;;6246007;28;20083;-76
2023/06/25 06:06:19;;;;;;;10.30;4.45;;;24.40;51.00;;;;;;6244568;28;20430;-74
2023/06/25 06:09:20;;;;;;;7.93;4.82;;;24.50;50.90;;;;;;6261405;28;20103;-73
2023/06/25 06:12:21;;;;;;;7.78;4.45;;;24.60;50.80;;;;;;6260847;28;20060;-75
2023/06/25 06:15:22;;;;;;;9.20;4.25;;;24.70;50.50;;;;;;6245974;28;20075;-74
2023/06/25 06:18:23;;;;;;;8.80;4.05;;;24.80;50.20;;;;;;6250583;28;20036;-74
2023/06/25 06:21:25;;;;;;;7.57;4.53;;;24.80;50.10;;;;;;6270260;28;20097;-76
2023/06/25 06:24:27;;;;;;;11.07;5.03;;;24.90;49.90;;;;;;6269305;28;20106;-75
2023/06/25 06:27:28;;;;;;;10.63;4.38;;;24.90;49.60;;;;;;6252869;28;20030;-74
2023/06/25 06:30:29;;;;;;;6.25;4.45;;;24.90;49.60;;;;;;6245670;28;20075;-76
2023/06/25 06:33:31;;;;;;;9.43;4.60;;;25.00;49.50;;;;;;6245381;28;20087;-74
2023/06/25 06:36:32;;;;;;;7.82;4.50;;;25.10;49.40;;;;;;6263627;28;20112;-74
2023/06/25 06:39:34;;;;;;;8.00;4.75;;;25.20;49.10;;;;;;6254457;28;20030;-75
2023/06/25 06:42:35;;;;;;;9.50;4.57;;;25.30;48.80;;;;;;6245062;28;20026;-74
2023/06/25 06:45:36;;;;;;;7.97;4.43;;;25.40;48.70;;;;;;6277703;28;20033;-74
2023/06/25 06:48:37;;;;;;;8.45;5.05;;;25.50;48.60;;;;;;6251068;28;20040;-75
2023/06/25 06:51:39;;;;;;;7.40;4.75;;;25.60;48.40;;;;;;6245328;28;20044;-75
2023/06/25 06:54:40;;;;;;;7.85;4.55;;;25.70;48.30;;;;;;6245273;28;20140;-75
2023/06/25 06:57:41;;;;;;;13.35;4.57;;;25.70;48.20;;;;;;6243913;28;20394;-76
2023/06/25 07:00:42;;;;;;;7.45;4.75;;;25.80;48.00;;;;;;6260302;28;20033;-74
2023/06/25 07:03:44;;;;;;;9.57;4.22;;;26.00;48.00;;;;;;6244713;28;20036;-74
2023/06/25 07:06:44;;;;;;;11.63;4.53;;;26.10;47.80;;;;;;6245383;28;20033;-75
2023/06/25 07:09:55;;;;;;;26.23;5.50;;;26.20;47.40;;;;;;6259826;28;20060;-75
2023/06/25 07:12:57;;;;;;;22.45;5.18;;;26.40;47.40;;;;;;6244778;28;20120;-76
2023/06/25 07:15:58;;;;;;;8.60;4.78;;;26.50;47.20;;;;;;6244629;28;20382;-75
2023/06/25 07:18:58;;;;;;;6.13;4.05;;;26.70;47.00;;;;;;6243196;28;20053;-75
2023/06/25 07:21:59;;;;;;;7.85;4.28;;;26.90;46.60;;;;;;6242317;28;20063;-75
2023/06/25 07:25:00;;;;;;;8.07;4.60;;;27.00;46.30;;;;;;6259708;28;20048;-74
2023/06/25 07:28:01;;;;;;;5.70;3.90;;;27.10;46.00;;;;;;6242982;28;20041;-76
2023/06/25 07:31:02;;;;;;;6.13;4.00;;;27.20;45.80;;;;;;6259242;28;20470;-77
2023/06/25 07:34:03;;;;;;;5.80;4.15;;;27.30;45.40;;;;;;6244053;28;20033;-74
2023/06/25 07:37:06;;;;;;;13.93;4.47;;;27.30;45.10;;;;;;6266366;28;20036;-74
2023/06/25 07:40:07;;;;;;;7.68;4.10;;;27.30;45.10;;;;;;6248309;28;20450;-75
2023/06/25 07:43:09;;;;;;;7.97;4.32;;;27.30;45.50;;;;;;6244437;28;20071;-76
2023/06/25 07:46:10;;;;;;;7.82;4.50;;;27.30;45.10;;;;;;6245049;28;20037;-75
2023/06/25 07:49:10;;;;;;;7.43;3.95;;;27.40;45.20;;;;;;6242380;28;20123;-75
2023/06/25 07:52:11;;;;;;;5.82;3.67;;;27.50;45.00;;;;;;6258515;28;20061;-77
2023/06/25 07:55:12;;;;;;;6.93;4.38;;;27.60;44.70;;;;;;6243990;28;20464;-73
2023/06/25 07:58:13;;;;;;;7.80;3.80;;;27.80;44.20;;;;;;6259046;28;20037;-75
2023/06/25 08:01:14;;;;;;;10.52;4.25;;;28.00;43.90;;;;;;6258843;28;20033;-76
2023/06/25 08:04:15;;;;;;;6.30;4.05;;;28.10;43.70;;;;;;6258651;28;20037;-74
2023/06/25 08:07:16;;;;;;;6.43;3.78;;;28.30;43.20;;;;;;6242233;28;20052;-75
2023/06/25 08:10:17;;;;;;;6.35;3.97;;;28.30;42.90;;;;;;6258091;28;20041;-75
2023/06/25 08:13:19;;;;;;;9.88;4.80;;;28.40;42.80;;;;;;6243249;28;20029;-75
2023/06/25 08:16:19;;;;;;;8.50;4.10;;;28.50;42.80;;;;;;6258670;28;20051;-75
2023/06/25 08:19:20;;;;;;;7.15;4.22;;;28.50;42.60;;;;;;6257726;28;20025;-75
2023/06/25 08:22:21;;;;;;;8.82;3.60;;;28.60;42.30;;;;;;6242997;28;20037;-75
2023/06/25 08:25:23;;;;;;;8.48;3.92;;;28.60;42.40;;;;;;6245031;28;20398;-74
2023/06/25 08:28:24;;;;;;;10.30;3.72;;;28.80;42.50;;;;;;6241774;28;20052;-76
2023/06/25 08:31:26;;;;;;;7.00;3.97;;;28.90;42.40;;;;;;6242598;28;20413;-76
2023/06/25 08:34:27;;;;;;;6.05;3.95;;;28.90;42.10;;;;;;6243874;28;20041;-76
2023/06/25 08:37:28;;;;;;;7.15;4.10;;;29.10;42.10;;;;;;6253245;28;20071;-75
2023/06/25 08:40:30;;;;;;;8.45;4.10;;;29.10;42.60;;;;;;6260936;28;20033;-75
2023/06/25 08:43:32;;;;;;;4.65;3.38;;;29.20;42.00;;;;;;6242545;28;20112;-77
2023/06/25 08:46:35;;;;;;;5.25;3.45;;;29.30;42.00;;;;;;6245093;28;20487;-76
2023/06/25 08:49:39;;;;;;;8.07;5.47;;;29.40;41.70;;;;;;6240843;28;20192;-74
2023/06/25 08:52:40;;;;;;;13.63;4.22;;;29.50;41.20;;;;;;6242000;28;20100;-75
2023/06/25 08:55:43;;;;;;;10.45;5.20;;;29.50;41.00;;;;;;6257439;28;20161;-76
2023/06/25 08:58:45;;;;;;;10.90;4.50;;;29.60;40.90;;;;;;6257477;28;20021;-74
2023/06/25 09:01:46;;;;;;;9.40;4.28;;;29.70;40.90;;;;;;6256680;28;20033;-74
2023/06/25 09:04:47;;;;;;;7.88;4.70;;;29.90;40.90;;;;;;6257156;28;20079;-75
2023/06/25 09:07:48;;;;;;;7.30;3.75;;;30.00;40.70;;;;;;6239923;28;20109;-76
2023/06/25 09:10:54;;;;;;;6.22;4.05;;;30.10;40.20;;;;;;6256221;28;20136;-76
2023/06/25 09:13:56;;;;;;;5.68;3.67;;;30.30;39.90;;;;;;6238879;28;20076;-75
2023/06/25 09:16:58;;;;;;;6.13;3.72;;;30.30;39.80;;;;;;6231357;28;20694;-76
2023/06/25 09:20:07;;;;;;;7.72;4.50;;;30.30;39.50;;;;;;6231672;28;20136;-75
2023/06/25 09:23:07;;;;;;;5.85;3.20;;;30.40;39.30;;;;;;6230887;28;20048;-74
2023/06/25 09:26:10;;;;;;;6.15;4.22;;;30.50;39.40;;;;;;6215985;28;20041;-74
2023/06/25 09:29:12;;;;;;;6.13;4.20;;;30.60;39.30;;;;;;6238480;28;20052;-74
2023/06/25 09:32:13;;;;;;;5.68;3.88;;;30.60;39.10;;;;;;6238831;28;20103;-74
2023/06/25 09:35:22;;;;;;;5.88;3.67;;;30.70;38.90;;;;;;6240841;28;20112;-75
2023/06/25 09:38:24;;;;;;;6.40;4.30;;;30.80;38.70;;;;;;6253287;28;20018;-74
2023/06/25 09:41:26;;;;;;;7.90;3.90;;;30.80;38.60;;;;;;6239104;28;20055;-75
2023/06/25 09:44:28;;;;;;;15.35;3.88;;;30.90;38.50;;;;;;6239576;28;20049;-77
2023/06/25 09:47:29;;;;;;;8.95;3.88;;;30.90;38.40;;;;;;6255832;28;20572;-76
2023/06/25 09:50:37;;;;;;;6.70;4.00;;;31.00;38.20;;;;;;6238910;28;20049;-75
2023/06/25 09:53:41;;;;;;;9.85;3.75;;;31.10;38.00;;;;;;6238825;28;20056;-75
2023/06/25 09:56:43;;;;;;;7.65;3.83;;;31.10;37.80;;;;;;6240625;28;20044;-75
2023/06/25 09:59:45;;;;;;;10.48;4.05;;;31.10;37.70;;;;;;6240628;28;20084;-74
2023/06/25 10:02:47;;;;;;;7.85;4.10;;;31.10;37.60;;;;;;6240626;28;20033;-75
2023/06/25 10:05:51;;;;;;;4.93;3.88;;;31.10;37.50;;;;;;6239501;28;20029;-74
2023/06/25 10:08:53;;;;;;;10.48;4.43;;;31.20;37.30;;;;;;6240445;28;20048;-74
2023/06/25 10:11:58;;;;;;;8.00;3.97;;;31.20;37.10;;;;;;6238701;28;20132;-75
2023/06/25 10:15:05;;;;;;;7.43;4.13;;;31.30;37.10;;;;;;6240140;28;20036;-76
2023/06/25 10:18:06;;;;;;;5.70;4.03;;;31.40;36.90;;;;;;6255321;28;20434;-76
2023/06/25 10:21:07;;;;;;;7.93;4.15;;;31.40;36.80;;;;;;6238412;28;20022;-74
2023/06/25 10:24:08;;;;;;;7.57;4.25;;;31.50;36.70;;;;;;6238465;28;20041;-75
2023/06/25 10:27:20;;;;;;;8.43;4.05;;;31.60;36.70;;;;;;6239416;28;20146;-75
2023/06/25 10:30:21;;;;;;;5.38;3.63;;;31.60;36.50;;;;;;6255290;28;20818;-75
2023/06/25 10:33:22;;;;;;;6.38;3.78;;;31.70;36.50;;;;;;6254795;28;20060;-75
2023/06/25 10:36:26;;;;;;;7.88;4.47;;;31.80;36.30;;;;;;6241682;28;20130;-75
2023/06/25 10:39:37;;;;;;;6.43;3.58;;;31.90;36.30;;;;;;6263850;28;20033;-75
2023/06/25 10:42:38;;;;;;;8.38;3.60;;;31.90;36.30;;;;;;6282090;28;20037;-76
2023/06/25 10:45:56;;;;;;;10.00;4.80;;;32.10;36.30;;;;;;6257620;28;20083;-75
2023/06/25 10:49:01;;;;;;;8.85;3.50;;;32.10;36.10;;;;;;6272725;28;20060;-75
2023/06/25 10:52:03;;;;;;;5.55;4.05;;;32.30;36.00;;;;;;6246304;28;20075;-75
2023/06/25 10:55:07;;;;;;;4.63;3.53;;;32.40;35.70;;;;;;6244217;28;20065;-77
2023/06/25 10:58:08;;;;;;;4.97;3.80;;;32.50;35.70;;;;;;6259091;28;20036;-76
2023/06/25 11:01:08;;;;;;;5.38;4.00;;;32.50;35.80;;;;;;6243995;28;20029;-77
2023/06/25 11:04:15;;;;;;;5.93;3.53;;;32.60;35.60;;;;;;6242416;28;20040;-75
2023/06/25 11:07:21;;;;;;;5.10;3.27;;;32.70;35.60;;;;;;6244271;28;20028;-75
2023/06/25 11:10:23;;;;;;;11.05;3.78;;;33.20;34.60;;;;;;6244814;28;20283;-76
2023/06/25 11:13:25;;;;;;;6.07;4.10;;;34.30;33.20;;;;;;6245323;28;20033;-75
2023/06/25 11:16:27;;;;;;;3.53;3.08;;;35.40;32.00;;;;;;6250279;28;20037;-75
2023/06/25 11:19:31;;;;;;;4.47;3.22;;;36.30;30.40;;;;;;6260598;28;20029;-75
2023/06/25 11:22:39;;;;;;;5.93;3.60;;;37.00;29.50;;;;;;6242413;28;20116;-76
2023/06/25 11:25:40;;;;;;;7.70;4.43;;;37.70;29.20;;;;;;6242245;28;20045;-74
2023/06/25 11:28:41;;;;;;;6.13;4.00;;;38.30;28.50;;;;;;6243724;28;20039;-75
2023/06/25 11:31:51;;;;;;;6.78;4.22;;;38.80;28.10;;;;;;6259429;28;20638;-77
2023/06/25 11:34:52;;;;;;;15.45;3.92;;;39.40;27.70;;;;;;6243624;28;20043;-74
2023/06/25 11:37:53;;;;;;;7.43;3.90;;;39.90;27.40;;;;;;6256660;28;20036;-74
2023/06/25 11:40:57;;;;;;;5.50;3.35;;;40.20;26.80;;;;;;6243310;28;20057;-76
2023/06/25 11:43:57;;;;;;;4.63;3.65;;;40.40;26.10;;;;;;6243344;28;20032;-74
2023/06/25 11:46:59;;;;;;;5.15;3.08;;;40.20;26.10;;;;;;6258434;28;20045;-75
2023/06/25 11:50:01;;;;;;;7.30;3.88;;;40.20;26.00;;;;;;6258272;28;20129;-74
2023/06/25 11:53:02;;;;;;;5.47;3.30;;;40.20;25.80;;;;;;6241421;28;20041;-74
2023/06/25 11:56:03;;;;;;;5.57;3.30;;;40.20;25.60;;;;;;6243356;28;20071;-75
2023/06/25 11:59:04;;;;;;;5.10;3.70;;;40.40;25.60;;;;;;6243110;28;20037;-76
2023/06/25 12:02:06;;;;;;;10.35;3.83;;;40.80;25.80;;;;;;6243114;28;20076;-74
2023/06/25 12:05:07;;;;;;;4.55;3.35;;;41.00;25.50;;;;;;6241267;28;20029;-75
2023/06/25 12:08:08;;;;;;;5.22;3.47;;;41.20;25.00;;;;;;6241110;28;20498;-74
2023/06/25 12:11:10;;;;;;;4.75;3.22;;;41.20;24.60;;;;;;6257274;28;20512;-75
2023/06/25 12:14:10;;;;;;;6.45;3.78;;;41.20;24.70;;;;;;6240871;28;20029;-76
2023/06/25 12:17:11;;;;;;;4.95;3.90;;;41.20;24.90;;;;;;6257180;28;20107;-76
2023/06/25 12:20:12;;;;;;;7.22;3.60;;;41.50;24.80;;;;;;6241798;28;20128;-75
2023/06/25 12:23:13;;;;;;;9.68;4.00;;;41.80;24.70;;;;;;6240095;28;20352;-74
2023/06/25 12:26:14;;;;;;;4.72;3.35;;;42.20;24.80;;;;;;6240289;28;20564;-75
2023/06/25 12:29:15;;;;;;;4.80;3.78;;;42.50;24.30;;;;;;6242040;28;20032;-75
2023/06/25 12:32:16;;;;;;;5.70;3.25;;;42.70;23.90;;;;;;6241417;28;20025;-75
2023/06/25 12:35:18;;;;;;;5.07;3.78;;;42.50;23.60;;;;;;6257146;28;20482;-74
2023/06/25 12:38:19;;;;;;;4.85;3.50;;;42.50;23.40;;;;;;6242788;28;20107;-74
2023/06/25 12:41:20;;;;;;;4.15;3.13;;;42.70;23.00;;;;;;6241530;28;20045;-75
2023/06/25 12:44:21;;;;;;;5.85;3.65;;;42.90;22.90;;;;;;6224971;28;20048;-74
2023/06/25 12:47:22;;;;;;;7.03;3.30;;;42.90;23.10;;;;;;6245896;28;20543;-75
2023/06/25 12:50:22;;;;;;;4.50;3.45;;;42.60;22.90;;;;;;6265932;28;20480;-75
2023/06/25 12:53:24;;;;;;;4.85;3.47;;;42.70;22.90;;;;;;6242901;28;20654;-74
2023/06/25 12:56:27;;;;;;;8.27;3.30;;;42.70;22.50;;;;;;6256636;28;20033;-75
2023/06/25 12:59:27;;;;;;;11.07;3.50;;;42.50;22.40;;;;;;6239863;28;20029;-74
2023/06/25 13:02:28;;;;;;;9.70;3.08;;;42.60;22.30;;;;;;6256067;28;20041;-76
2023/06/25 13:05:29;;;;;;;5.30;2.90;;;42.70;22.10;;;;;;6239184;28;20117;-76
2023/06/25 13:08:30;;;;;;;4.65;3.08;;;43.00;22.00;;;;;;6239791;28;20068;-74
2023/06/25 13:11:34;;;;;;;4.63;3.05;;;43.50;21.80;;;;;;6239280;28;20096;-75
2023/06/25 13:14:34;;;;;;;4.22;3.40;;;43.80;21.50;;;;;;6241000;28;20068;-74
2023/06/25 13:17:35;;;;;;;4.68;3.55;;;44.30;21.10;;;;;;6240987;28;20377;-74
2023/06/25 13:20:36;;;;;;;5.90;3.40;;;44.70;20.70;;;;;;6256569;28;20063;-75
2023/06/25 13:23:38;;;;;;;5.10;3.22;;;45.10;20.60;;;;;;6241003;28;20034;-75
2023/06/25 13:26:39;;;;;;;3.90;3.03;;;45.40;20.30;;;;;;6239417;28;20041;-74
2023/06/25 13:29:43;;;;;;;8.80;3.15;;;45.80;19.90;;;;;;6256092;28;20037;-76
2023/06/25 13:32:44;;;;;;;4.57;3.05;;;46.40;19.80;;;;;;6240783;28;20029;-75
2023/06/25 13:35:45;;;;;;;4.30;3.20;;;46.80;19.30;;;;;;6240678;28;20114;-73
2023/06/25 13:38:45;;;;;;;6.10;3.58;;;47.10;18.90;;;;;;6253018;28;20060;-74
2023/06/25 13:41:46;;;;;;;3.90;3.38;;;47.60;18.70;;;;;;6240232;28;20406;-74
2023/06/25 13:44:47;;;;;;;5.07;2.97;;;48.10;18.30;;;;;;6255953;28;20159;-74
2023/06/25 13:47:48;;;;;;;3.50;2.85;;;48.30;18.10;;;;;;6256390;28;20164;-74
2023/06/25 13:50:49;;;;;;;3.38;2.65;;;48.50;17.90;;;;;;6241960;28;20034;-74
2023/06/25 13:53:50;;;;;;;4.82;3.60;;;48.80;17.70;;;;;;6246414;28;20053;-75
2023/06/25 13:56:52;;;;;;;4.05;3.00;;;49.20;17.40;;;;;;6239632;28;20040;-75
2023/06/25 13:59:52;;;;;;;6.13;3.50;;;49.00;17.30;;;;;;6238810;28;20316;-75
2023/06/25 14:02:54;;;;;;;3.95;3.42;;;49.10;17.20;;;;;;6238523;28;20017;-75
2023/06/25 14:05:55;;;;;;;6.25;3.28;;;49.30;17.10;;;;;;6240685;28;20062;-75
2023/06/25 14:08:56;;;;;;;7.20;3.10;;;49.50;17.00;;;;;;6239438;28;20034;-75
2023/06/25 14:11:57;;;;;;;4.80;3.05;;;49.20;17.00;;;;;;6238879;28;20088;-74
2023/06/25 14:14:58;;;;;;;4.03;3.10;;;49.20;17.00;;;;;;6241131;28;20092;-73
2023/06/25 14:17:59;;;;;;;4.00;3.40;;;49.70;16.90;;;;;;6242055;28;20117;-75
2023/06/25 14:21:00;;;;;;;5.55;3.75;;;49.90;16.70;;;;;;6243600;28;20426;-76
2023/06/25 14:24:01;;;;;;;9.15;3.38;;;50.10;16.60;;;;;;6259888;28;20250;-73
2023/06/25 14:27:02;;;;;;;4.47;2.88;;;50.40;16.50;;;;;;6244867;28;20152;-75
2023/06/25 14:30:04;;;;;;;6.03;3.22;;;50.30;16.40;;;;;;6253434;28;20415;-75
2023/06/25 14:33:05;;;;;;;5.25;3.17;;;50.50;16.40;;;;;;6267998;28;20135;-75
2023/06/25 14:36:06;;;;;;;3.42;3.00;;;50.40;16.10;;;;;;6269543;28;20036;-76
2023/06/25 14:39:07;;;;;;;6.80;3.45;;;50.10;16.20;;;;;;6258046;28;20053;-74
2023/06/25 14:42:08;;;;;;;4.63;3.30;;;50.00;16.10;;;;;;6242999;28;20047;-74
2023/06/25 14:45:09;;;;;;;4.18;3.08;;;49.90;16.10;;;;;;6243180;28;20036;-75
2023/06/25 14:48:10;;;;;;;4.18;3.20;;;49.80;16.10;;;;;;6243257;28;20373;-74
2023/06/25 14:51:11;;;;;;;3.95;3.08;;;49.90;16.00;;;;;;6246107;28;20029;-74
2023/06/25 14:54:12;;;;;;;4.45;2.92;;;49.70;15.90;;;;;;6272211;28;20091;-74
2023/06/25 14:57:13;;;;;;;4.53;3.17;;;49.40;16.00;;;;;;6264880;28;20034;-75
2023/06/25 15:00:15;;;;;;;4.15;3.40;;;49.20;16.00;;;;;;6259824;28;20122;-74
2023/06/25 15:03:16;;;;;;;3.70;3.05;;;49.10;15.80;;;;;;6244025;28;20179;-75
2023/06/25 15:06:18;;;;;;;4.05;3.00;;;49.10;15.90;;;;;;6259130;28;20052;-73
2023/06/25 15:09:19;;;;;;;4.25;3.15;;;49.00;15.90;;;;;;6259254;28;20033;-74
2023/06/25 15:12:20;;;;;;;5.22;3.00;;;48.60;16.10;;;;;;6241916;28;20541;-74
2023/06/25 15:15:21;;;;;;;6.53;3.20;;;48.40;16.40;;;;;;6258986;28;20037;-75
2023/06/25 15:18:22;;;;;;;7.35;3.00;;;48.50;16.30;;;;;;6243781;28;20087;-74
2023/06/25 15:21:23;;;;;;;3.88;3.25;;;48.30;16.20;;;;;;6258781;28;20030;-75
2023/06/25 15:24:23;;;;;;;5.03;3.03;;;48.10;16.30;;;;;;6243547;28;20029;-74
2023/06/25 15:27:24;;;;;;;4.60;3.33;;;47.90;16.50;;;;;;6242893;28;20037;-74
2023/06/25 15:30:26;;;;;;;4.63;3.42;;;47.70;16.50;;;;;;6242260;28;20033;-75
2023/06/25 15:33:27;;;;;;;5.65;3.28;;;47.40;16.60;;;;;;6258239;28;20057;-74
2023/06/25 15:36:28;;;;;;;6.82;3.55;;;47.30;16.60;;;;;;6245436;28;20605;-74
2023/06/25 15:39:29;;;;;;;7.10;3.58;;;47.30;16.70;;;;;;6233941;28;20033;-74
2023/06/25 15:42:30;;;;;;;4.43;3.25;;;47.30;16.70;;;;;;6256444;28;20032;-75
2023/06/25 15:45:31;;;;;;;12.10;3.22;;;47.50;16.70;;;;;;6283294;28;20099;-74